sensor_id;sensor_type;location;lat;lon;timestamp;P1;durP1;ratioP1;P2;durP2;ratioP2
20589;SDS011;10453;50.810;12.540;2023-02-02T00:04:02;11.68;;;3.47;;
20589;SDS011;10453;50.810;12.540;2023-02-02T00:08:20;11.00;;;4.13;;
20589;SDS011;10453;50.810;12.540;2023-02-02T00:12:37;10.30;;;3.50;;
20589;SDS011;10453;50.810;12.540;2023-02-02T00:16:55;9.07;;;3.10;;
20589;SDS011;10453;50.810;12.540;2023-02-02T00:21:12;11.23;;;4.13;;
20589;SDS011;10453;50.810;12.540;2023-02-02T00:25:30;10.02;;;3.25;;
20589;SDS011;10453;50.810;12.540;2023-02-02T00:29:48;12.05;;;3.60;;
20589;SDS011;10453;50.810;12.540;2023-02-02T00:34:10;9.85;;;3.00;;
20589;SDS011;10453;50.810;12.540;2023-02-02T00:38:28;7.30;;;3.03;;
20589;SDS011;10453;50.810;12.540;2023-02-02T00:42:46;11.48;;;3.45;;
20589;SDS011;10453;50.810;12.540;2023-02-02T00:47:06;9.95;;;3.28;;
20589;SDS011;10453;50.810;12.540;2023-02-02T00:51:23;8.65;;;2.40;;
20589;SDS011;10453;50.810;12.540;2023-02-02T00:55:40;8.93;;;2.60;;
20589;SDS011;10453;50.810;12.540;2023-02-02T00:59:57;12.18;;;2.90;;
20589;SDS011;10453;50.810;12.540;2023-02-02T01:04:14;10.50;;;2.85;;
20589;SDS011;10453;50.810;12.540;2023-02-02T01:08:31;11.10;;;2.80;;
20589;SDS011;10453;50.810;12.540;2023-02-02T01:12:48;6.50;;;2.28;;
20589;SDS011;10453;50.810;12.540;2023-02-02T01:17:05;11.88;;;2.25;;
20589;SDS011;10453;50.810;12.540;2023-02-02T01:21:22;9.80;;;2.30;;
20589;SDS011;10453;50.810;12.540;2023-02-02T01:25:39;7.10;;;2.60;;
20589;SDS011;10453;50.810;12.540;2023-02-02T01:29:57;9.93;;;2.22;;
20589;SDS011;10453;50.810;12.540;2023-02-02T01:34:14;9.07;;;2.22;;
20589;SDS011;10453;50.810;12.540;2023-02-02T01:38:31;11.98;;;2.10;;
20589;SDS011;10453;50.810;12.540;2023-02-02T01:42:48;11.40;;;2.55;;
20589;SDS011;10453;50.810;12.540;2023-02-02T01:47:05;8.48;;;2.00;;
20589;SDS011;10453;50.810;12.540;2023-02-02T01:51:24;8.82;;;2.00;;
20589;SDS011;10453;50.810;12.540;2023-02-02T01:55:47;7.97;;;2.13;;
20589;SDS011;10453;50.810;12.540;2023-02-02T02:04:25;10.95;;;2.05;;
20589;SDS011;10453;50.810;12.540;2023-02-02T02:08:47;10.55;;;2.20;;
20589;SDS011;10453;50.810;12.540;2023-02-02T02:13:11;10.60;;;2.00;;
20589;SDS011;10453;50.810;12.540;2023-02-02T02:17:52;10.38;;;1.98;;
20589;SDS011;10453;50.810;12.540;2023-02-02T02:22:20;11.27;;;2.00;;
20589;SDS011;10453;50.810;12.540;2023-02-02T02:40:40;13.45;;;2.15;;
20589;SDS011;10453;50.810;12.540;2023-02-02T02:45:04;9.27;;;1.70;;
20589;SDS011;10453;50.810;12.540;2023-02-02T02:49:23;14.68;;;1.88;;
20589;SDS011;10453;50.810;12.540;2023-02-02T02:53:40;11.77;;;1.95;;
20589;SDS011;10453;50.810;12.540;2023-02-02T02:58:04;9.80;;;1.95;;
20589;SDS011;10453;50.810;12.540;2023-02-02T03:07:14;14.98;;;2.13;;
20589;SDS011;10453;50.810;12.540;2023-02-02T03:11:39;11.07;;;2.05;;
20589;SDS011;10453;50.810;12.540;2023-02-02T03:15:56;11.27;;;2.20;;
20589;SDS011;10453;50.810;12.540;2023-02-02T03:20:14;6.17;;;1.37;;
20589;SDS011;10453;50.810;12.540;2023-02-02T03:24:32;14.63;;;2.05;;
20589;SDS011;10453;50.810;12.540;2023-02-02T03:28:49;11.18;;;2.25;;
20589;SDS011;10453;50.810;12.540;2023-02-02T03:37:25;13.30;;;2.45;;
20589;SDS011;10453;50.810;12.540;2023-02-02T03:41:42;8.95;;;1.63;;
20589;SDS011;10453;50.810;12.540;2023-02-02T03:46:00;12.00;;;2.03;;
20589;SDS011;10453;50.810;12.540;2023-02-02T03:50:20;9.70;;;1.75;;
20589;SDS011;10453;50.810;12.540;2023-02-02T03:54:37;15.82;;;2.25;;
20589;SDS011;10453;50.810;12.540;2023-02-02T03:58:57;7.82;;;2.08;;
20589;SDS011;10453;50.810;12.540;2023-02-02T04:03:14;13.80;;;2.30;;
20589;SDS011;10453;50.810;12.540;2023-02-02T04:07:31;9.73;;;2.22;;
20589;SDS011;10453;50.810;12.540;2023-02-02T04:11:48;9.52;;;1.90;;
20589;SDS011;10453;50.810;12.540;2023-02-02T04:16:05;13.10;;;1.95;;
20589;SDS011;10453;50.810;12.540;2023-02-02T04:20:23;16.25;;;1.98;;
20589;SDS011;10453;50.810;12.540;2023-02-02T04:24:40;14.85;;;2.40;;
20589;SDS011;10453;50.810;12.540;2023-02-02T04:28:57;11.32;;;1.95;;
20589;SDS011;10453;50.810;12.540;2023-02-02T04:33:14;8.88;;;1.90;;
20589;SDS011;10453;50.810;12.540;2023-02-02T04:37:31;10.07;;;2.40;;
20589;SDS011;10453;50.810;12.540;2023-02-02T04:41:49;10.18;;;1.60;;
20589;SDS011;10453;50.810;12.540;2023-02-02T04:46:06;14.05;;;2.67;;
20589;SDS011;10453;50.810;12.540;2023-02-02T04:50:23;14.82;;;2.05;;
20589;SDS011;10453;50.810;12.540;2023-02-02T04:54:40;16.42;;;2.50;;
20589;SDS011;10453;50.810;12.540;2023-02-02T04:58:57;17.02;;;2.60;;
20589;SDS011;10453;50.810;12.540;2023-02-02T05:03:14;12.40;;;2.10;;
20589;SDS011;10453;50.810;12.540;2023-02-02T05:07:32;14.70;;;2.53;;
20589;SDS011;10453;50.810;12.540;2023-02-02T05:11:49;11.35;;;2.40;;
20589;SDS011;10453;50.810;12.540;2023-02-02T05:16:06;11.75;;;1.75;;
20589;SDS011;10453;50.810;12.540;2023-02-02T05:20:23;14.05;;;1.88;;
20589;SDS011;10453;50.810;12.540;2023-02-02T05:24:41;11.25;;;1.92;;
20589;SDS011;10453;50.810;12.540;2023-02-02T05:28:58;11.98;;;2.17;;
20589;SDS011;10453;50.810;12.540;2023-02-02T05:33:15;15.32;;;2.90;;
20589;SDS011;10453;50.810;12.540;2023-02-02T05:37:35;20.40;;;2.38;;
20589;SDS011;10453;50.810;12.540;2023-02-02T05:41:52;14.15;;;2.42;;
20589;SDS011;10453;50.810;12.540;2023-02-02T05:46:09;14.40;;;2.53;;
20589;SDS011;10453;50.810;12.540;2023-02-02T05:50:27;19.92;;;3.08;;
20589;SDS011;10453;50.810;12.540;2023-02-02T05:54:44;16.60;;;3.05;;
20589;SDS011;10453;50.810;12.540;2023-02-02T05:59:01;20.73;;;3.30;;
20589;SDS011;10453;50.810;12.540;2023-02-02T06:03:22;12.70;;;2.40;;
20589;SDS011;10453;50.810;12.540;2023-02-02T06:07:40;13.35;;;2.40;;
20589;SDS011;10453;50.810;12.540;2023-02-02T06:11:57;19.90;;;2.40;;
20589;SDS011;10453;50.810;12.540;2023-02-02T06:16:14;15.25;;;2.58;;
20589;SDS011;10453;50.810;12.540;2023-02-02T06:20:31;10.18;;;2.20;;
20589;SDS011;10453;50.810;12.540;2023-02-02T06:24:48;19.23;;;2.60;;
20589;SDS011;10453;50.810;12.540;2023-02-02T06:29:05;14.38;;;2.67;;
20589;SDS011;10453;50.810;12.540;2023-02-02T06:33:23;14.70;;;2.35;;
20589;SDS011;10453;50.810;12.540;2023-02-02T06:37:40;13.20;;;2.30;;
20589;SDS011;10453;50.810;12.540;2023-02-02T06:41:57;15.63;;;3.17;;
20589;SDS011;10453;50.810;12.540;2023-02-02T06:46:24;15.48;;;3.10;;
20589;SDS011;10453;50.810;12.540;2023-02-02T06:50:41;12.52;;;2.60;;
20589;SDS011;10453;50.810;12.540;2023-02-02T06:54:58;16.33;;;2.20;;
20589;SDS011;10453;50.810;12.540;2023-02-02T06:59:15;15.82;;;2.47;;
20589;SDS011;10453;50.810;12.540;2023-02-02T07:03:33;10.13;;;2.30;;
20589;SDS011;10453;50.810;12.540;2023-02-02T07:07:50;13.75;;;1.92;;
20589;SDS011;10453;50.810;12.540;2023-02-02T07:12:07;15.40;;;2.30;;
20589;SDS011;10453;50.810;12.540;2023-02-02T07:16:24;12.07;;;2.70;;
20589;SDS011;10453;50.810;12.540;2023-02-02T07:20:42;17.27;;;2.47;;
20589;SDS011;10453;50.810;12.540;2023-02-02T07:24:59;13.52;;;2.40;;
20589;SDS011;10453;50.810;12.540;2023-02-02T07:29:16;15.25;;;2.42;;
20589;SDS011;10453;50.810;12.540;2023-02-02T07:33:33;19.15;;;3.28;;
20589;SDS011;10453;50.810;12.540;2023-02-02T07:37:54;13.00;;;2.65;;
20589;SDS011;10453;50.810;12.540;2023-02-02T07:42:11;19.20;;;3.20;;
20589;SDS011;10453;50.810;12.540;2023-02-02T07:46:29;13.93;;;2.75;;
20589;SDS011;10453;50.810;12.540;2023-02-02T07:50:46;15.05;;;2.80;;
20589;SDS011;10453;50.810;12.540;2023-02-02T07:55:04;9.65;;;1.98;;
20589;SDS011;10453;50.810;12.540;2023-02-02T07:59:41;16.45;;;2.42;;
20589;SDS011;10453;50.810;12.540;2023-02-02T08:03:58;17.02;;;2.75;;
20589;SDS011;10453;50.810;12.540;2023-02-02T08:08:16;15.75;;;3.30;;
20589;SDS011;10453;50.810;12.540;2023-02-02T08:12:33;13.57;;;3.10;;
20589;SDS011;10453;50.810;12.540;2023-02-02T08:16:50;11.75;;;2.65;;
20589;SDS011;10453;50.810;12.540;2023-02-02T08:21:07;12.73;;;2.50;;
20589;SDS011;10453;50.810;12.540;2023-02-02T08:25:24;13.82;;;2.33;;
20589;SDS011;10453;50.810;12.540;2023-02-02T08:29:42;13.07;;;2.53;;
20589;SDS011;10453;50.810;12.540;2023-02-02T08:33:59;18.05;;;2.65;;
20589;SDS011;10453;50.810;12.540;2023-02-02T08:38:16;12.23;;;2.30;;
20589;SDS011;10453;50.810;12.540;2023-02-02T08:42:34;14.13;;;2.70;;
20589;SDS011;10453;50.810;12.540;2023-02-02T08:46:51;13.30;;;2.67;;
20589;SDS011;10453;50.810;12.540;2023-02-02T08:51:09;14.20;;;3.08;;
20589;SDS011;10453;50.810;12.540;2023-02-02T08:55:27;13.68;;;2.65;;
20589;SDS011;10453;50.810;12.540;2023-02-02T08:59:44;14.90;;;2.38;;
20589;SDS011;10453;50.810;12.540;2023-02-02T09:04:05;13.13;;;2.63;;
20589;SDS011;10453;50.810;12.540;2023-02-02T09:08:23;16.80;;;2.28;;
20589;SDS011;10453;50.810;12.540;2023-02-02T09:12:41;11.13;;;2.30;;
20589;SDS011;10453;50.810;12.540;2023-02-02T09:16:58;13.68;;;2.65;;
20589;SDS011;10453;50.810;12.540;2023-02-02T09:21:16;9.05;;;2.08;;
20589;SDS011;10453;50.810;12.540;2023-02-02T09:25:34;15.18;;;3.15;;
20589;SDS011;10453;50.810;12.540;2023-02-02T09:29:51;20.42;;;3.17;;
20589;SDS011;10453;50.810;12.540;2023-02-02T09:34:10;17.13;;;2.80;;
20589;SDS011;10453;50.810;12.540;2023-02-02T09:38:28;14.50;;;3.00;;
20589;SDS011;10453;50.810;12.540;2023-02-02T09:42:54;12.13;;;2.88;;
20589;SDS011;10453;50.810;12.540;2023-02-02T09:47:39;10.43;;;2.95;;
20589;SDS011;10453;50.810;12.540;2023-02-02T09:52:14;12.73;;;2.38;;
20589;SDS011;10453;50.810;12.540;2023-02-02T09:56:38;11.75;;;2.78;;
20589;SDS011;10453;50.810;12.540;2023-02-02T10:01:03;12.88;;;3.08;;
20589;SDS011;10453;50.810;12.540;2023-02-02T10:05:55;19.80;;;2.88;;
20589;SDS011;10453;50.810;12.540;2023-02-02T10:10:21;11.02;;;2.38;;
20589;SDS011;10453;50.810;12.540;2023-02-02T10:14:53;13.50;;;2.65;;
20589;SDS011;10453;50.810;12.540;2023-02-02T10:19:16;14.82;;;2.40;;
20589;SDS011;10453;50.810;12.540;2023-02-02T10:23:37;12.20;;;2.25;;
20589;SDS011;10453;50.810;12.540;2023-02-02T10:28:07;10.27;;;2.00;;
20589;SDS011;10453;50.810;12.540;2023-02-02T10:32:46;13.38;;;2.50;;
20589;SDS011;10453;50.810;12.540;2023-02-02T10:41:53;12.60;;;2.28;;
20589;SDS011;10453;50.810;12.540;2023-02-02T10:51:20;11.77;;;2.42;;
20589;SDS011;10453;50.810;12.540;2023-02-02T10:55:42;8.63;;;1.88;;
20589;SDS011;10453;50.810;12.540;2023-02-02T11:00:18;10.55;;;2.47;;
20589;SDS011;10453;50.810;12.540;2023-02-02T11:04:39;10.50;;;2.05;;
20589;SDS011;10453;50.810;12.540;2023-02-02T11:09:19;9.32;;;1.60;;
20589;SDS011;10453;50.810;12.540;2023-02-02T11:13:48;7.72;;;1.50;;
20589;SDS011;10453;50.810;12.540;2023-02-02T11:18:12;6.93;;;1.30;;
20589;SDS011;10453;50.810;12.540;2023-02-02T11:22:42;4.72;;;1.30;;
20589;SDS011;10453;50.810;12.540;2023-02-02T11:27:04;7.53;;;1.42;;
20589;SDS011;10453;50.810;12.540;2023-02-02T11:31:34;6.27;;;1.63;;
20589;SDS011;10453;50.810;12.540;2023-02-02T11:35:54;6.00;;;1.13;;
20589;SDS011;10453;50.810;12.540;2023-02-02T11:40:41;10.95;;;2.10;;
20589;SDS011;10453;50.810;12.540;2023-02-02T11:45:00;4.30;;;0.95;;
20589;SDS011;10453;50.810;12.540;2023-02-02T11:49:20;4.35;;;1.60;;
20589;SDS011;10453;50.810;12.540;2023-02-02T11:58:16;7.60;;;1.73;;
20589;SDS011;10453;50.810;12.540;2023-02-02T12:02:35;10.57;;;1.73;;
20589;SDS011;10453;50.810;12.540;2023-02-02T12:06:52;11.35;;;2.35;;
20589;SDS011;10453;50.810;12.540;2023-02-02T12:11:09;13.00;;;3.33;;
20589;SDS011;10453;50.810;12.540;2023-02-02T12:15:44;8.18;;;1.83;;
20589;SDS011;10453;50.810;12.540;2023-02-02T12:20:15;10.25;;;2.05;;
20589;SDS011;10453;50.810;12.540;2023-02-02T12:24:56;11.27;;;2.63;;
20589;SDS011;10453;50.810;12.540;2023-02-02T12:29:31;7.65;;;1.88;;
20589;SDS011;10453;50.810;12.540;2023-02-02T12:34:21;6.25;;;3.08;;
20589;SDS011;10453;50.810;12.540;2023-02-02T12:38:52;7.70;;;1.80;;
20589;SDS011;10453;50.810;12.540;2023-02-02T12:43:27;7.35;;;1.70;;
20589;SDS011;10453;50.810;12.540;2023-02-02T13:02:16;3.00;;;1.35;;
20589;SDS011;10453;50.810;12.540;2023-02-02T13:07:00;7.47;;;1.77;;
20589;SDS011;10453;50.810;12.540;2023-02-02T13:11:30;8.52;;;1.48;;
20589;SDS011;10453;50.810;12.540;2023-02-02T13:15:54;4.80;;;1.98;;
20589;SDS011;10453;50.810;12.540;2023-02-02T13:20:17;7.50;;;1.70;;
20589;SDS011;10453;50.810;12.540;2023-02-02T13:24:43;6.35;;;1.40;;
20589;SDS011;10453;50.810;12.540;2023-02-02T13:29:04;6.70;;;1.30;;
20589;SDS011;10453;50.810;12.540;2023-02-02T13:33:27;11.68;;;1.52;;
20589;SDS011;10453;50.810;12.540;2023-02-02T13:37:52;5.85;;;1.10;;
20589;SDS011;10453;50.810;12.540;2023-02-02T13:42:30;6.07;;;1.33;;
20589;SDS011;10453;50.810;12.540;2023-02-02T13:46:57;4.75;;;1.40;;
20589;SDS011;10453;50.810;12.540;2023-02-02T13:51:37;5.03;;;1.23;;
20589;SDS011;10453;50.810;12.540;2023-02-02T13:56:04;5.07;;;1.35;;
20589;SDS011;10453;50.810;12.540;2023-02-02T14:00:53;6.10;;;1.83;;
20589;SDS011;10453;50.810;12.540;2023-02-02T14:05:26;5.13;;;1.60;;
20589;SDS011;10453;50.810;12.540;2023-02-02T14:09:46;5.10;;;1.60;;
20589;SDS011;10453;50.810;12.540;2023-02-02T14:14:08;5.95;;;1.33;;
20589;SDS011;10453;50.810;12.540;2023-02-02T14:28:13;5.60;;;1.45;;
20589;SDS011;10453;50.810;12.540;2023-02-02T14:37:40;10.82;;;1.65;;
20589;SDS011;10453;50.810;12.540;2023-02-02T14:42:11;8.32;;;2.40;;
20589;SDS011;10453;50.810;12.540;2023-02-02T14:47:02;8.90;;;2.78;;
20589;SDS011;10453;50.810;12.540;2023-02-02T14:51:20;6.57;;;1.90;;
20589;SDS011;10453;50.810;12.540;2023-02-02T14:55:49;7.75;;;2.03;;
20589;SDS011;10453;50.810;12.540;2023-02-02T15:00:21;8.32;;;2.08;;
20589;SDS011;10453;50.810;12.540;2023-02-02T15:04:42;9.20;;;1.92;;
20589;SDS011;10453;50.810;12.540;2023-02-02T15:13:36;9.68;;;2.05;;
20589;SDS011;10453;50.810;12.540;2023-02-02T15:17:57;6.87;;;1.93;;
20589;SDS011;10453;50.810;12.540;2023-02-02T15:27:35;8.98;;;2.05;;
20589;SDS011;10453;50.810;12.540;2023-02-02T15:32:14;9.02;;;2.83;;
20589;SDS011;10453;50.810;12.540;2023-02-02T15:36:34;9.82;;;2.53;;
20589;SDS011;10453;50.810;12.540;2023-02-02T15:40:54;8.40;;;2.47;;
20589;SDS011;10453;50.810;12.540;2023-02-02T15:49:50;10.30;;;2.53;;
20589;SDS011;10453;50.810;12.540;2023-02-02T15:54:19;11.90;;;3.13;;
20589;SDS011;10453;50.810;12.540;2023-02-02T15:58:38;9.55;;;2.72;;
20589;SDS011;10453;50.810;12.540;2023-02-02T16:07:22;11.20;;;2.03;;
20589;SDS011;10453;50.810;12.540;2023-02-02T16:11:45;13.27;;;4.70;;
20589;SDS011;10453;50.810;12.540;2023-02-02T16:16:06;9.73;;;3.13;;
20589;SDS011;10453;50.810;12.540;2023-02-02T16:20:37;9.73;;;3.08;;
20589;SDS011;10453;50.810;12.540;2023-02-02T16:24:57;6.97;;;2.22;;
20589;SDS011;10453;50.810;12.540;2023-02-02T16:29:17;12.27;;;3.40;;
20589;SDS011;10453;50.810;12.540;2023-02-02T16:33:41;10.50;;;3.47;;
20589;SDS011;10453;50.810;12.540;2023-02-02T16:43:02;9.75;;;2.38;;
20589;SDS011;10453;50.810;12.540;2023-02-02T16:47:31;12.63;;;2.78;;
20589;SDS011;10453;50.810;12.540;2023-02-02T16:52:24;11.32;;;2.45;;
20589;SDS011;10453;50.810;12.540;2023-02-02T16:56:48;12.27;;;3.00;;
20589;SDS011;10453;50.810;12.540;2023-02-02T17:01:08;9.05;;;1.92;;
20589;SDS011;10453;50.810;12.540;2023-02-02T17:05:32;8.52;;;2.85;;
20589;SDS011;10453;50.810;12.540;2023-02-02T17:14:33;12.80;;;2.80;;
20589;SDS011;10453;50.810;12.540;2023-02-02T17:18:52;7.53;;;2.60;;
20589;SDS011;10453;50.810;12.540;2023-02-02T17:23:12;11.27;;;2.70;;
20589;SDS011;10453;50.810;12.540;2023-02-02T17:27:33;10.70;;;2.80;;
20589;SDS011;10453;50.810;12.540;2023-02-02T17:31:51;11.70;;;3.20;;
20589;SDS011;10453;50.810;12.540;2023-02-02T17:36:09;11.55;;;3.10;;
20589;SDS011;10453;50.810;12.540;2023-02-02T17:40:28;6.72;;;2.92;;
20589;SDS011;10453;50.810;12.540;2023-02-02T17:44:45;10.77;;;3.30;;
20589;SDS011;10453;50.810;12.540;2023-02-02T17:49:03;9.30;;;3.05;;
20589;SDS011;10453;50.810;12.540;2023-02-02T17:53:20;9.27;;;2.50;;
20589;SDS011;10453;50.810;12.540;2023-02-02T17:57:38;10.30;;;2.80;;
20589;SDS011;10453;50.810;12.540;2023-02-02T18:01:55;7.97;;;2.53;;
20589;SDS011;10453;50.810;12.540;2023-02-02T18:06:13;10.73;;;2.60;;
20589;SDS011;10453;50.810;12.540;2023-02-02T18:10:30;7.13;;;2.78;;
20589;SDS011;10453;50.810;12.540;2023-02-02T18:14:47;9.95;;;2.60;;
20589;SDS011;10453;50.810;12.540;2023-02-02T18:19:04;10.00;;;3.08;;
20589;SDS011;10453;50.810;12.540;2023-02-02T18:23:21;6.75;;;2.38;;
20589;SDS011;10453;50.810;12.540;2023-02-02T18:27:40;10.90;;;2.67;;
20589;SDS011;10453;50.810;12.540;2023-02-02T18:31:57;14.45;;;2.80;;
20589;SDS011;10453;50.810;12.540;2023-02-02T18:36:16;11.17;;;2.90;;
20589;SDS011;10453;50.810;12.540;2023-02-02T18:40:35;12.90;;;2.75;;
20589;SDS011;10453;50.810;12.540;2023-02-02T18:44:53;10.98;;;3.00;;
20589;SDS011;10453;50.810;12.540;2023-02-02T18:49:11;9.45;;;3.70;;
20589;SDS011;10453;50.810;12.540;2023-02-02T18:53:28;10.27;;;3.85;;
20589;SDS011;10453;50.810;12.540;2023-02-02T18:57:45;8.88;;;3.20;;
20589;SDS011;10453;50.810;12.540;2023-02-02T19:02:02;7.65;;;3.42;;
20589;SDS011;10453;50.810;12.540;2023-02-02T19:06:19;7.10;;;3.65;;
20589;SDS011;10453;50.810;12.540;2023-02-02T19:10:59;8.70;;;4.13;;
20589;SDS011;10453;50.810;12.540;2023-02-02T19:15:23;12.77;;;4.75;;
20589;SDS011;10453;50.810;12.540;2023-02-02T19:19:42;8.88;;;4.00;;
20589;SDS011;10453;50.810;12.540;2023-02-02T19:23:59;7.47;;;4.10;;
20589;SDS011;10453;50.810;12.540;2023-02-02T19:28:26;8.98;;;3.50;;
20589;SDS011;10453;50.810;12.540;2023-02-02T19:32:46;11.20;;;3.63;;
20589;SDS011;10453;50.810;12.540;2023-02-02T19:37:14;11.30;;;3.83;;
20589;SDS011;10453;50.810;12.540;2023-02-02T19:41:39;6.63;;;3.17;;
20589;SDS011;10453;50.810;12.540;2023-02-02T19:45:58;10.23;;;4.10;;
20589;SDS011;10453;50.810;12.540;2023-02-02T19:50:19;9.17;;;4.17;;
20589;SDS011;10453;50.810;12.540;2023-02-02T19:54:39;12.13;;;6.70;;
20589;SDS011;10453;50.810;12.540;2023-02-02T19:59:00;19.40;;;10.18;;
20589;SDS011;10453;50.810;12.540;2023-02-02T20:03:27;12.25;;;5.97;;
20589;SDS011;10453;50.810;12.540;2023-02-02T20:07:57;9.98;;;4.60;;
20589;SDS011;10453;50.810;12.540;2023-02-02T20:12:33;11.00;;;3.60;;
20589;SDS011;10453;50.810;12.540;2023-02-02T20:16:52;9.95;;;4.45;;
20589;SDS011;10453;50.810;12.540;2023-02-02T20:25:48;8.32;;;3.92;;
20589;SDS011;10453;50.810;12.540;2023-02-02T20:30:16;8.60;;;4.00;;
20589;SDS011;10453;50.810;12.540;2023-02-02T20:34:43;11.85;;;3.60;;
20589;SDS011;10453;50.810;12.540;2023-02-02T20:43:38;12.00;;;3.95;;
20589;SDS011;10453;50.810;12.540;2023-02-02T20:47:55;13.95;;;3.60;;
20589;SDS011;10453;50.810;12.540;2023-02-02T20:52:13;13.73;;;4.90;;
20589;SDS011;10453;50.810;12.540;2023-02-02T20:56:39;9.40;;;3.08;;
20589;SDS011;10453;50.810;12.540;2023-02-02T21:00:56;13.07;;;3.38;;
20589;SDS011;10453;50.810;12.540;2023-02-02T21:05:15;11.48;;;3.08;;
20589;SDS011;10453;50.810;12.540;2023-02-02T21:09:32;10.38;;;3.22;;
20589;SDS011;10453;50.810;12.540;2023-02-02T21:13:50;9.60;;;3.25;;
20589;SDS011;10453;50.810;12.540;2023-02-02T21:18:10;6.22;;;3.17;;
20589;SDS011;10453;50.810;12.540;2023-02-02T21:22:27;11.48;;;3.90;;
20589;SDS011;10453;50.810;12.540;2023-02-02T21:26:44;13.57;;;4.10;;
20589;SDS011;10453;50.810;12.540;2023-02-02T21:31:06;13.32;;;3.95;;
20589;SDS011;10453;50.810;12.540;2023-02-02T21:35:24;10.43;;;4.47;;
20589;SDS011;10453;50.810;12.540;2023-02-02T21:39:42;12.73;;;4.22;;
20589;SDS011;10453;50.810;12.540;2023-02-02T21:44:10;17.65;;;4.20;;
20589;SDS011;10453;50.810;12.540;2023-02-02T21:48:33;13.02;;;4.00;;
20589;SDS011;10453;50.810;12.540;2023-02-02T21:52:52;10.10;;;4.30;;
20589;SDS011;10453;50.810;12.540;2023-02-02T21:57:24;9.93;;;4.10;;
20589;SDS011;10453;50.810;12.540;2023-02-02T22:01:52;12.88;;;3.75;;
20589;SDS011;10453;50.810;12.540;2023-02-02T22:06:17;11.83;;;3.93;;
20589;SDS011;10453;50.810;12.540;2023-02-02T22:10:44;9.15;;;3.33;;
20589;SDS011;10453;50.810;12.540;2023-02-02T22:15:04;13.07;;;2.90;;
20589;SDS011;10453;50.810;12.540;2023-02-02T22:19:34;9.68;;;3.45;;
20589;SDS011;10453;50.810;12.540;2023-02-02T22:23:54;10.95;;;3.30;;
20589;SDS011;10453;50.810;12.540;2023-02-02T22:32:55;8.98;;;4.55;;
20589;SDS011;10453;50.810;12.540;2023-02-02T22:37:12;5.28;;;2.78;;
20589;SDS011;10453;50.810;12.540;2023-02-02T22:41:29;6.50;;;3.35;;
20589;SDS011;10453;50.810;12.540;2023-02-02T22:45:46;9.95;;;3.60;;
20589;SDS011;10453;50.810;12.540;2023-02-02T22:50:04;9.60;;;3.63;;
20589;SDS011;10453;50.810;12.540;2023-02-02T22:54:22;9.70;;;3.80;;
20589;SDS011;10453;50.810;12.540;2023-02-02T22:58:39;11.60;;;3.95;;
20589;SDS011;10453;50.810;12.540;2023-02-02T23:02:56;10.40;;;4.22;;
20589;SDS011;10453;50.810;12.540;2023-02-02T23:07:14;11.32;;;4.47;;
20589;SDS011;10453;50.810;12.540;2023-02-02T23:11:31;10.82;;;4.38;;
20589;SDS011;10453;50.810;12.540;2023-02-02T23:15:48;9.70;;;5.07;;
20589;SDS011;10453;50.810;12.540;2023-02-02T23:20:07;13.48;;;4.95;;
20589;SDS011;10453;50.810;12.540;2023-02-02T23:24:26;13.93;;;6.07;;
20589;SDS011;10453;50.810;12.540;2023-02-02T23:28:43;9.18;;;5.95;;
20589;SDS011;10453;50.810;12.540;2023-02-02T23:33:00;11.02;;;6.13;;
20589;SDS011;10453;50.810;12.540;2023-02-02T23:37:17;12.45;;;6.63;;
20589;SDS011;10453;50.810;12.540;2023-02-02T23:41:34;9.70;;;6.00;;
20589;SDS011;10453;50.810;12.540;2023-02-02T23:45:51;12.32;;;6.43;;
20589;SDS011;10453;50.810;12.540;2023-02-02T23:50:09;13.88;;;6.65;;
20589;SDS011;10453;50.810;12.540;2023-02-02T23:54:27;10.73;;;5.50;;
20589;SDS011;10453;50.810;12.540;2023-02-02T23:58:45;10.18;;;5.90;;
